CYPG

Portage La Prairie Airport

Portage, , Canada
TAF CYPG 181730Z 1818/1906 29005KT P6SM BKN240 BECMG 1822/1824 VRB03KT SCT200 RMK NXT FCST BY 190000Z
Issued Valid From Valid To
Jan-18 @ 17:30 UTC
(9 hours ago)
Jan-18 @ 18:00 UTC
(9 hours ago)
Jan-19 @ 06:00 UTC
(in 3 hours)
Expired Click to View Jan-18 @ 18:00 to Jan-18 @ 22:00
TAF CYPG 181730Z 1818/1906 29005KT P6SM BKN240
Wind Visibility Clouds
290° at 5 knots Greater than 6 miles
  • Broken at 24,000' AGL
Becoming Jan-18 @ 22:00 to Jan-19 @ 06:00
BECMG 1822/1824 VRB03KT SCT200 RMK NXT FCST BY 190000Z
Wind Visibility Clouds
Variable at 3 knots Greater than 6 miles
  • Scattered at 20,000' AGL
TAF CYPG 181730Z 1818/1906 29005KT P6SM BKN240 BECMG 1822/1824 VRB03KT SCT200 RMK NXT FCST BY 190000Z
Issued Jan-18 @ 17:30 UTC
(9 hours ago)
Valid From Jan-18 @ 18:00 UTC
(9 hours ago)
Valid To Jan-19 @ 06:00 UTC
(in 3 hours)
Jan-18 @ 18:00 - Jan-18 @ 22:00
Wind Visibility
290° at 5 knots Greater than 6 miles
Clouds
  • Broken at 24,000' AGL
Becoming Jan-18 @ 22:00 - Jan-19 @ 06:00
Wind Visibility
Variable at 3 knots Greater than 6 miles
Clouds
  • Scattered at 20,000' AGL